createdAt,value
2018-09-14T00:02:08.395Z,3.60
2018-09-14T00:04:37.083Z,4.27
2018-09-14T00:07:05.538Z,3.90
2018-09-14T00:09:33.969Z,4.10
2018-09-14T00:12:02.584Z,3.80
2018-09-14T00:14:31.022Z,4.37
2018-09-14T00:17:00.177Z,3.60
2018-09-14T00:19:28.734Z,4.47
2018-09-14T00:21:57.501Z,3.80
2018-09-14T00:24:25.968Z,4.50
2018-09-14T00:26:56.103Z,4.07
2018-09-14T00:29:24.798Z,4.80
2018-09-14T00:31:53.331Z,5.20
2018-09-14T00:34:21.858Z,4.53
2018-09-14T00:36:50.428Z,4.43
2018-09-14T00:39:18.907Z,4.50
2018-09-14T00:41:47.975Z,4.80
2018-09-14T00:44:16.673Z,4.53
2018-09-14T00:46:45.121Z,4.70
2018-09-14T00:49:14.317Z,4.07
2018-09-14T00:51:43.176Z,5.27
2018-09-14T00:54:11.784Z,4.97
2018-09-14T00:56:40.206Z,4.80
2018-09-14T00:59:08.899Z,4.83
2018-09-14T01:01:37.520Z,5.43
2018-09-14T01:04:06.183Z,5.30
2018-09-14T01:06:34.678Z,4.80
2018-09-14T01:09:03.302Z,5.07
2018-09-14T01:11:31.919Z,5.50
2018-09-14T01:14:01.173Z,5.20
2018-09-14T01:16:29.834Z,4.90
2018-09-14T01:18:58.604Z,5.37
2018-09-14T01:21:28.349Z,5.53
2018-09-14T01:23:57.093Z,5.80
2018-09-14T01:26:26.234Z,5.27
2018-09-14T01:28:54.945Z,5.63
2018-09-14T01:31:23.431Z,5.23
2018-09-14T01:33:51.940Z,5.23
2018-09-14T01:36:20.485Z,5.43
2018-09-14T01:38:48.915Z,5.40
2018-09-14T01:41:17.432Z,5.87
2018-09-14T01:43:46.042Z,5.97
2018-09-14T01:46:14.491Z,5.20
2018-09-14T01:48:43.384Z,6.13
2018-09-14T01:51:11.850Z,6.00
2018-09-14T01:53:40.443Z,6.43
2018-09-14T01:56:08.946Z,6.53
2018-09-14T01:58:37.613Z,6.20
2018-09-14T02:01:06.160Z,6.47
2018-09-14T02:03:34.812Z,6.43
2018-09-14T02:06:03.286Z,6.70
2018-09-14T02:08:31.880Z,6.60
2018-09-14T02:11:00.679Z,5.87
2018-09-14T02:13:29.120Z,6.90
2018-09-14T02:15:58.414Z,6.80
2018-09-14T02:18:27.201Z,6.60
2018-09-14T02:20:55.791Z,6.63
2018-09-14T02:23:24.360Z,6.90
2018-09-14T02:25:53.481Z,6.70
2018-09-14T02:28:22.356Z,7.23
2018-09-14T02:30:51.328Z,7.23
2018-09-14T02:33:20.083Z,7.40
2018-09-14T02:35:48.537Z,7.43
2018-09-14T02:38:23.152Z,7.67
2018-09-14T02:40:51.717Z,7.23
2018-09-14T02:43:20.418Z,7.27
2018-09-14T02:45:48.984Z,8.03
2018-09-14T02:48:17.563Z,7.30
2018-09-14T02:50:46.132Z,7.70
2018-09-14T02:53:15.361Z,7.97
2018-09-14T02:55:43.843Z,8.60
2018-09-14T02:58:12.310Z,7.30
2018-09-14T03:00:41.593Z,7.47
2018-09-14T03:03:10.169Z,8.33
2018-09-14T03:05:38.748Z,7.93
2018-09-14T03:08:07.694Z,7.83
2018-09-14T03:10:36.420Z,8.10
2018-09-14T03:13:05.095Z,7.80
2018-09-14T03:15:33.693Z,8.13
2018-09-14T03:18:02.276Z,8.50
2018-09-14T03:20:30.732Z,8.10
2018-09-14T03:22:59.332Z,7.90
2018-09-14T03:25:27.973Z,8.60
2018-09-14T03:27:56.386Z,8.67
2018-09-14T03:30:24.955Z,8.10
2018-09-14T03:32:54.112Z,9.33
2018-09-14T03:35:22.675Z,9.17
2018-09-14T03:37:51.301Z,8.10
2018-09-14T03:40:19.767Z,8.83
2018-09-14T03:42:48.272Z,8.37
2018-09-14T03:45:18.063Z,8.23
2018-09-14T03:47:46.595Z,9.37
2018-09-14T03:50:15.033Z,8.10
2018-09-14T03:52:43.540Z,8.43
2018-09-14T03:55:12.779Z,8.30
2018-09-14T03:57:41.330Z,8.67
2018-09-14T04:00:09.753Z,9.33
2018-09-14T04:02:38.540Z,9.03
2018-09-14T04:05:07.212Z,9.07
2018-09-14T04:07:35.728Z,9.10
2018-09-14T04:10:05.248Z,9.80
2018-09-14T04:12:34.116Z,9.03
2018-09-14T04:15:02.895Z,8.83
2018-09-14T04:17:38.172Z,9.17
2018-09-14T04:20:07.577Z,8.88
2018-09-14T04:22:36.236Z,9.20
2018-09-14T04:25:04.903Z,10.17
2018-09-14T04:27:33.477Z,9.37
2018-09-14T04:30:02.026Z,8.80
2018-09-14T04:32:30.640Z,9.70
2018-09-14T04:34:59.100Z,8.10
2018-09-14T04:37:27.713Z,8.37
2018-09-14T04:39:56.186Z,7.77
2018-09-14T04:42:24.683Z,8.83
2018-09-14T04:44:53.376Z,7.40
2018-09-14T04:47:21.992Z,7.60
2018-09-14T04:49:51.137Z,7.47
2018-09-14T04:52:19.952Z,7.70
2018-09-14T04:54:48.578Z,7.67
2018-09-14T04:57:17.176Z,9.20
2018-09-14T04:59:45.673Z,8.27
2018-09-14T05:02:14.270Z,9.80
2018-09-14T05:04:42.958Z,8.97
2018-09-14T05:07:12.144Z,9.07
2018-09-14T05:09:40.679Z,9.10
2018-09-14T05:12:09.523Z,10.27
2018-09-14T05:14:38.242Z,9.30
2018-09-14T05:17:06.908Z,9.28
2018-09-14T05:19:35.364Z,9.93
2018-09-14T05:22:03.881Z,10.30
2018-09-14T05:24:32.460Z,9.80
2018-09-14T05:27:01.003Z,10.23
2018-09-14T05:29:29.529Z,9.63
2018-09-14T05:31:58.304Z,9.93
2018-09-14T05:34:26.952Z,9.37
2018-09-14T05:36:55.589Z,10.10
2018-09-14T05:39:24.148Z,9.57
2018-09-14T05:41:53.367Z,10.73
2018-09-14T05:44:22.068Z,10.00
2018-09-14T05:46:50.675Z,9.67
2018-09-14T05:49:19.218Z,10.67
2018-09-14T05:51:47.907Z,10.80
2018-09-14T05:54:23.170Z,10.53
2018-09-14T05:56:51.788Z,10.63
2018-09-14T05:59:21.378Z,10.73
2018-09-14T06:01:50.560Z,11.30
2018-09-14T06:04:19.306Z,12.17
2018-09-14T06:06:47.834Z,16.20
2018-09-14T06:09:16.332Z,18.40
2018-09-14T06:11:45.072Z,13.00
2018-09-14T06:14:13.611Z,12.70
2018-09-14T06:16:42.027Z,13.40
2018-09-14T06:19:10.520Z,16.07
2018-09-14T06:21:39.002Z,14.10
2018-09-14T06:24:07.552Z,14.07
2018-09-14T06:26:36.045Z,14.03
2018-09-14T06:29:04.721Z,13.67
2018-09-14T06:31:33.472Z,12.93
2018-09-14T06:34:01.961Z,13.47
2018-09-14T06:36:31.008Z,32.37
2018-09-14T06:38:59.644Z,59.90
2018-09-14T06:41:28.491Z,18.73
2018-09-14T06:43:57.657Z,29.37
2018-09-14T06:46:26.295Z,17.20
2018-09-14T06:48:54.883Z,13.27
2018-09-14T06:51:23.422Z,14.67
2018-09-14T06:53:51.961Z,13.37
2018-09-14T06:56:20.496Z,14.27
2018-09-14T06:58:48.969Z,14.30
2018-09-14T07:01:17.452Z,15.30
2018-09-14T07:03:46.510Z,14.13
2018-09-14T07:06:15.263Z,16.33
2018-09-14T07:08:44.278Z,14.50
2018-09-14T07:11:13.504Z,16.67
2018-09-14T07:13:42.281Z,16.93
2018-09-14T07:16:10.850Z,17.27
2018-09-14T07:18:39.445Z,18.07
2018-09-14T07:21:08.245Z,16.30
2018-09-14T07:23:36.748Z,15.73
2018-09-14T07:26:05.337Z,16.70
2018-09-14T07:28:33.867Z,15.80
2018-09-14T07:31:02.614Z,16.17
2018-09-14T07:33:31.864Z,16.07
2018-09-14T07:36:00.514Z,16.40
2018-09-14T07:38:29.118Z,15.80
2018-09-14T07:40:57.746Z,16.87
2018-09-14T07:43:26.218Z,17.03
2018-09-14T07:45:55.057Z,17.20
2018-09-14T07:48:23.558Z,16.60
2018-09-14T07:50:52.137Z,17.23
2018-09-14T07:53:20.736Z,15.80
2018-09-14T07:55:49.244Z,16.00
2018-09-14T07:58:17.703Z,16.17
2018-09-14T08:00:46.299Z,16.20
2018-09-14T08:03:14.765Z,15.57
2018-09-14T08:05:43.407Z,16.27
2018-09-14T08:08:12.241Z,14.80
2018-09-14T08:10:40.875Z,15.10
2018-09-14T08:13:09.594Z,15.13
2018-09-14T08:15:38.794Z,15.10
2018-09-14T08:18:07.273Z,14.07
2018-09-14T08:20:36.374Z,13.93
2018-09-14T08:23:05.265Z,13.40
2018-09-14T08:25:33.826Z,13.20
2018-09-14T08:28:02.495Z,12.87
2018-09-14T08:30:31.119Z,13.40
2018-09-14T08:32:59.872Z,12.97
2018-09-14T08:35:28.390Z,11.93
2018-09-14T08:37:56.845Z,12.17
2018-09-14T08:40:25.396Z,11.87
2018-09-14T08:42:53.849Z,10.97
2018-09-14T08:45:22.439Z,11.70
2018-09-14T08:47:51.280Z,11.90
2018-09-14T08:50:19.842Z,10.23
2018-09-14T08:52:48.476Z,12.07
2018-09-14T08:55:16.957Z,10.47
2018-09-14T08:57:45.471Z,11.00
2018-09-14T09:00:17.072Z,10.07
2018-09-14T09:02:45.881Z,9.30
2018-09-14T09:05:14.473Z,9.27
2018-09-14T09:07:42.942Z,9.37
2018-09-14T09:10:11.510Z,9.57
2018-09-14T09:12:40.129Z,9.57
2018-09-14T09:15:08.849Z,8.60
2018-09-14T09:17:37.449Z,9.67
2018-09-14T09:20:06.907Z,9.28
2018-09-14T09:22:35.493Z,8.77
2018-09-14T09:25:04.001Z,8.03
2018-09-14T09:27:33.136Z,9.37
2018-09-14T09:30:02.081Z,8.43
2018-09-14T09:32:30.654Z,8.23
2018-09-14T09:34:59.308Z,8.47
2018-09-14T09:37:27.718Z,8.40
2018-09-14T09:39:56.310Z,9.07
2018-09-14T09:42:25.034Z,9.08
2018-09-14T09:44:54.263Z,8.20
2018-09-14T09:47:23.009Z,6.90
2018-09-14T09:49:51.487Z,7.27
2018-09-14T09:52:20.283Z,7.57
2018-09-14T09:54:48.763Z,7.30
2018-09-14T09:57:17.450Z,7.37
2018-09-14T09:59:46.427Z,6.30
2018-09-14T10:02:20.319Z,7.20
2018-09-14T10:04:54.028Z,7.08
2018-09-14T10:07:25.731Z,7.28
2018-09-14T10:09:54.735Z,7.90
2018-09-14T10:12:24.339Z,6.75
2018-09-14T10:14:53.150Z,6.77
2018-09-14T10:17:21.705Z,6.28
2018-09-14T10:19:50.226Z,6.62
2018-09-14T10:22:18.794Z,7.03
2018-09-14T10:24:47.982Z,6.90
2018-09-14T10:27:16.685Z,6.20
2018-09-14T10:29:45.255Z,5.25
2018-09-14T10:32:13.820Z,5.90
2018-09-14T10:34:42.442Z,6.25
2018-09-14T10:37:14.025Z,6.22
2018-09-14T10:39:42.588Z,6.85
2018-09-14T10:42:11.347Z,6.12
2018-09-14T10:44:40.039Z,6.83
2018-09-14T10:47:08.490Z,4.83
2018-09-14T10:49:37.304Z,6.00
2018-09-14T10:52:05.786Z,4.85
2018-09-14T10:54:34.519Z,7.30
2018-09-14T10:57:03.246Z,6.60
2018-09-14T10:59:31.724Z,7.87
2018-09-14T11:02:00.180Z,7.45
2018-09-14T11:04:29.067Z,7.55
2018-09-14T11:06:57.601Z,7.50
2018-09-14T11:09:26.294Z,8.83
2018-09-14T11:11:54.901Z,7.78
2018-09-14T11:14:23.579Z,9.05
2018-09-14T11:16:52.015Z,7.05
2018-09-14T11:19:21.180Z,8.38
2018-09-14T11:21:56.381Z,8.18
2018-09-14T11:24:24.978Z,6.45
2018-09-14T11:26:53.385Z,6.60
2018-09-14T11:29:22.054Z,6.42
2018-09-14T11:31:51.136Z,6.22
2018-09-14T11:34:19.768Z,6.35
2018-09-14T11:36:48.314Z,7.78
2018-09-14T11:39:16.964Z,6.70
2018-09-14T11:41:45.573Z,7.22
2018-09-14T11:44:14.207Z,6.95
2018-09-14T11:46:42.741Z,6.75
2018-09-14T11:49:11.280Z,6.40
2018-09-14T11:51:40.163Z,7.75
2018-09-14T11:54:08.927Z,7.97
2018-09-14T11:56:37.921Z,7.25
2018-09-14T11:59:06.632Z,5.95
2018-09-14T12:01:35.181Z,6.15
2018-09-14T12:04:03.839Z,5.58
2018-09-14T12:06:32.458Z,6.37
2018-09-14T12:09:01.373Z,6.33
2018-09-14T12:11:29.959Z,6.28
2018-09-14T12:13:58.517Z,6.25
2018-09-14T12:16:27.079Z,5.58
2018-09-14T12:18:56.038Z,6.10
2018-09-14T12:21:24.659Z,4.67
2018-09-14T12:23:53.109Z,5.47
2018-09-14T12:26:21.808Z,5.37
2018-09-14T12:28:50.517Z,5.00
2018-09-14T12:31:19.537Z,4.92
2018-09-14T12:33:47.981Z,5.03
2018-09-14T12:36:16.605Z,4.10
2018-09-14T12:38:45.110Z,4.55
2018-09-14T12:41:14.414Z,4.87
2018-09-14T12:43:42.849Z,4.37
2018-09-14T12:46:11.468Z,4.45
2018-09-14T12:48:40.385Z,5.10
2018-09-14T12:51:09.044Z,4.03
2018-09-14T12:53:37.864Z,5.08
2018-09-14T12:56:08.054Z,4.42
2018-09-14T12:58:37.309Z,4.53
2018-09-14T13:01:05.932Z,5.60
2018-09-14T13:03:34.682Z,16.90
2018-09-14T13:06:03.172Z,11.95
2018-09-14T13:08:31.832Z,5.37
2018-09-14T13:11:00.530Z,26.30
2018-09-14T13:13:31.105Z,8.83
2018-09-14T13:16:00.312Z,5.33
2018-09-14T13:18:29.880Z,4.28
2018-09-14T13:20:58.430Z,4.37
2018-09-14T13:23:27.020Z,3.98
2018-09-14T13:25:55.779Z,4.25
2018-09-14T13:28:24.520Z,13.32
2018-09-14T13:30:53.528Z,5.03
2018-09-14T13:33:22.520Z,3.50
2018-09-14T13:35:51.866Z,4.00
2018-09-14T13:38:20.366Z,3.98
2018-09-14T13:40:49.817Z,6.35
2018-09-14T13:43:18.298Z,4.42
2018-09-14T13:45:48.515Z,3.87
2018-09-14T13:48:17.276Z,3.90
2018-09-14T13:50:45.741Z,3.90
2018-09-14T13:53:15.455Z,3.65
2018-09-14T13:55:45.675Z,5.42
2018-09-14T13:58:14.501Z,3.08
2018-09-14T14:00:43.134Z,3.85
2018-09-14T14:03:11.645Z,3.12
2018-09-14T14:05:40.365Z,3.35
2018-09-14T14:08:08.831Z,3.72
2018-09-14T14:10:37.520Z,2.90
2018-09-14T14:13:06.480Z,3.58
2018-09-14T14:15:34.974Z,2.72
2018-09-14T14:18:03.485Z,3.83
2018-09-14T14:20:32.422Z,3.67
2018-09-14T14:23:01.167Z,3.52
2018-09-14T14:25:29.825Z,4.05
2018-09-14T14:27:58.392Z,4.78
2018-09-14T14:30:27.055Z,3.65
2018-09-14T14:32:55.689Z,12.33
2018-09-14T14:35:24.292Z,3.80
2018-09-14T14:37:56.282Z,4.10
2018-09-14T14:40:26.232Z,3.07
2018-09-14T14:42:54.724Z,3.12
2018-09-14T14:45:23.341Z,3.20
2018-09-14T14:47:51.837Z,3.00
2018-09-14T14:50:20.489Z,3.40
2018-09-14T14:52:50.144Z,3.22
2018-09-14T14:55:18.626Z,3.17
2018-09-14T14:57:47.102Z,3.30
2018-09-14T15:00:15.698Z,3.20
2018-09-14T15:02:44.393Z,3.17
2018-09-14T15:05:14.225Z,3.27
2018-09-14T15:07:42.744Z,3.60
2018-09-14T15:10:12.053Z,3.27
2018-09-14T15:12:40.796Z,3.17
2018-09-14T15:15:10.093Z,2.95
2018-09-14T15:17:38.690Z,3.30
2018-09-14T15:20:07.810Z,3.10
2018-09-14T15:22:37.085Z,3.30
2018-09-14T15:25:06.423Z,3.67
2018-09-14T15:27:34.892Z,3.00
2018-09-14T15:30:04.469Z,3.17
2018-09-14T15:32:32.963Z,3.27
2018-09-14T15:35:01.429Z,3.52
2018-09-14T15:37:36.559Z,3.47
2018-09-14T15:40:11.832Z,3.27
2018-09-14T15:42:42.856Z,2.95
2018-09-14T15:45:12.204Z,2.98
2018-09-14T15:47:41.030Z,3.90
2018-09-14T15:50:10.255Z,3.27
2018-09-14T15:52:38.987Z,3.00
2018-09-14T15:55:07.705Z,2.80
2018-09-14T15:57:37.521Z,2.80
2018-09-14T16:00:07.522Z,2.55
2018-09-14T16:02:36.983Z,3.02
2018-09-14T16:05:06.216Z,2.30
2018-09-14T16:07:37.912Z,2.72
2018-09-14T16:10:06.952Z,2.60
2018-09-14T16:12:41.360Z,2.62
2018-09-14T16:15:10.269Z,2.58
2018-09-14T16:17:38.782Z,2.80
2018-09-14T16:20:08.853Z,2.45
2018-09-14T16:22:39.018Z,3.10
2018-09-14T16:25:07.600Z,3.35
2018-09-14T16:27:44.595Z,2.65
2018-09-14T16:30:13.335Z,3.23
2018-09-14T16:32:41.896Z,2.70
2018-09-14T16:37:47.936Z,3.00
2018-09-14T16:40:17.286Z,2.97
2018-09-14T16:42:46.042Z,2.55
2018-09-14T16:45:21.105Z,2.85
2018-09-14T16:47:55.802Z,2.98
2018-09-14T16:50:25.392Z,2.43
2018-09-14T16:52:55.342Z,3.40
2018-09-14T16:55:23.854Z,2.87
2018-09-14T16:57:54.743Z,2.85
2018-09-14T17:00:23.512Z,2.73
2018-09-14T17:02:52.088Z,2.65
2018-09-14T17:05:21.594Z,2.30
2018-09-14T17:07:51.873Z,2.25
2018-09-14T17:10:21.757Z,2.20
2018-09-14T17:12:50.264Z,2.67
2018-09-14T17:15:18.739Z,2.47
2018-09-14T17:17:48.251Z,8.58
2018-09-14T17:20:16.873Z,8.83
2018-09-14T17:22:45.560Z,24.67
2018-09-14T17:25:14.661Z,8.03
2018-09-14T17:27:43.351Z,13.70
2018-09-14T17:30:12.062Z,6.33
2018-09-14T17:32:40.556Z,2.65
2018-09-14T17:35:09.528Z,3.05
2018-09-14T17:37:38.344Z,2.10
2018-09-14T17:40:07.087Z,2.10
2018-09-14T17:42:35.966Z,2.35
2018-09-14T17:45:04.869Z,1.98
2018-09-14T17:47:33.497Z,2.27
2018-09-14T17:50:02.039Z,2.30
2018-09-14T17:52:31.288Z,2.33
2018-09-14T17:55:00.567Z,2.10
2018-09-14T17:57:29.454Z,29.10
2018-09-14T17:59:58.648Z,8.15
2018-09-14T18:02:27.449Z,2.40
2018-09-14T18:04:55.940Z,3.20
2018-09-14T18:07:24.728Z,2.45
2018-09-14T18:09:53.346Z,2.37
2018-09-14T18:12:22.094Z,2.05
2018-09-14T18:14:51.341Z,2.30
2018-09-14T18:17:19.789Z,2.10
2018-09-14T18:19:49.309Z,2.02
2018-09-14T18:22:19.379Z,2.20
2018-09-14T18:24:49.000Z,2.33
2018-09-14T18:27:17.667Z,2.17
2018-09-14T18:29:46.354Z,2.50
2018-09-14T18:32:15.028Z,2.70
2018-09-14T18:34:44.739Z,2.00
2018-09-14T18:37:13.775Z,2.30
2018-09-14T18:39:42.989Z,2.17
2018-09-14T18:42:11.631Z,2.40
2018-09-14T18:44:41.708Z,2.60
2018-09-14T18:47:10.550Z,2.60
2018-09-14T18:49:39.173Z,3.42
2018-09-14T18:52:08.733Z,2.65
2018-09-14T18:54:37.458Z,2.30
2018-09-14T18:57:06.091Z,2.60
2018-09-14T18:59:35.272Z,2.65
2018-09-14T19:02:03.831Z,3.30
2018-09-14T19:04:32.443Z,3.90
2018-09-14T19:07:01.084Z,8.75
2018-09-14T19:09:29.792Z,3.17
2018-09-14T19:11:58.228Z,4.83
2018-09-14T19:14:26.901Z,5.03
2018-09-14T19:16:55.373Z,3.50
2018-09-14T19:19:27.715Z,3.98
2018-09-14T19:21:57.968Z,6.83
2018-09-14T19:24:27.865Z,3.70
2018-09-14T19:26:56.435Z,4.93
2018-09-14T19:29:25.817Z,6.80
2018-09-14T19:31:54.535Z,18.23
2018-09-14T19:34:23.758Z,4.20
2018-09-14T19:36:52.931Z,5.60
2018-09-14T19:39:21.425Z,4.27
2018-09-14T19:41:50.116Z,10.10
2018-09-14T19:44:18.611Z,4.37
2018-09-14T19:46:47.292Z,3.40
2018-09-14T19:49:15.901Z,2.98
2018-09-14T19:51:45.226Z,3.87
2018-09-14T19:54:14.377Z,3.27
2018-09-14T19:56:43.202Z,10.27
2018-09-14T19:59:11.813Z,4.15
2018-09-14T20:01:41.294Z,8.70
2018-09-14T20:04:10.113Z,4.55
2018-09-14T20:26:47.637Z,3.90
2018-09-14T20:29:17.183Z,4.00
2018-09-14T20:31:45.802Z,6.43
2018-09-14T20:34:16.919Z,5.60
2018-09-14T20:36:52.624Z,4.93
2018-09-14T20:39:22.801Z,3.53
2018-09-14T20:41:51.629Z,3.85
2018-09-14T20:44:20.936Z,6.90
2018-09-14T20:46:55.170Z,6.77
2018-09-14T20:49:23.774Z,4.23
2018-09-14T20:51:52.433Z,4.40
2018-09-14T20:54:20.876Z,3.70
2018-09-14T20:56:49.615Z,3.33
2018-09-14T20:59:18.476Z,3.47
2018-09-14T21:01:48.694Z,3.40
2018-09-14T21:04:17.417Z,3.40
2018-09-14T21:06:45.879Z,3.73
2018-09-14T21:09:15.468Z,3.67
2018-09-14T21:11:44.500Z,4.30
2018-09-14T21:14:12.956Z,3.37
2018-09-14T21:16:41.462Z,3.83
2018-09-14T21:19:10.123Z,4.20
2018-09-14T21:21:39.963Z,8.15
2018-09-14T21:24:08.676Z,4.00
2018-09-14T21:26:37.270Z,4.30
2018-09-14T21:29:06.244Z,3.90
2018-09-14T21:31:35.664Z,3.50
2018-09-14T21:34:04.272Z,3.30
2018-09-14T21:36:32.945Z,3.27
2018-09-14T21:39:01.548Z,3.27
2018-09-14T21:41:30.645Z,3.07
2018-09-14T21:43:59.352Z,3.10
2018-09-14T21:46:27.858Z,3.40
2018-09-14T21:48:57.202Z,3.33
2018-09-14T21:51:26.321Z,4.03
2018-09-14T21:53:54.966Z,2.87
2018-09-14T21:56:23.475Z,3.15
2018-09-14T21:58:52.476Z,3.40
2018-09-14T22:01:27.060Z,3.50
2018-09-14T22:03:56.305Z,3.60
2018-09-14T22:06:25.137Z,3.03
2018-09-14T22:08:54.299Z,3.33
2018-09-14T22:11:23.667Z,3.40
2018-09-14T22:13:52.649Z,2.90
2018-09-14T22:16:21.593Z,2.97
2018-09-14T22:18:50.339Z,3.20
2018-09-14T22:21:19.497Z,3.27
2018-09-14T22:23:48.200Z,3.40
2018-09-14T22:26:16.829Z,3.33
2018-09-14T22:28:45.473Z,2.90
2018-09-14T22:31:14.125Z,3.00
2018-09-14T22:33:42.685Z,3.00
2018-09-14T22:36:11.272Z,3.13
2018-09-14T22:38:39.845Z,3.77
2018-09-14T22:41:08.379Z,3.27
2018-09-14T22:43:37.005Z,3.13
2018-09-14T22:46:05.525Z,3.80
2018-09-14T22:48:33.996Z,3.87
2018-09-14T22:51:02.609Z,3.90
2018-09-14T22:53:31.223Z,4.15
2018-09-14T22:55:59.775Z,3.77
2018-09-14T22:58:28.310Z,3.53
2018-09-14T23:01:02.099Z,3.80
2018-09-14T23:03:30.632Z,3.67
2018-09-14T23:05:59.096Z,4.03
2018-09-14T23:08:27.545Z,3.30
2018-09-14T23:10:56.076Z,3.03
2018-09-14T23:13:24.680Z,3.17
2018-09-14T23:16:00.272Z,3.27
2018-09-14T23:18:29.749Z,3.10
2018-09-14T23:20:58.667Z,2.80
2018-09-14T23:23:27.886Z,3.30
2018-09-14T23:25:58.636Z,3.60
2018-09-14T23:28:27.067Z,3.60
2018-09-14T23:30:55.625Z,3.20
2018-09-14T23:33:24.214Z,3.30
2018-09-14T23:35:52.797Z,2.93
2018-09-14T23:38:21.346Z,3.17
2018-09-14T23:40:49.997Z,3.07
2018-09-14T23:43:19.006Z,3.30
2018-09-14T23:45:48.193Z,3.27
2018-09-14T23:48:16.632Z,3.10
2018-09-14T23:50:45.087Z,3.07
2018-09-14T23:53:13.733Z,2.70
2018-09-14T23:55:42.459Z,3.37
2018-09-14T23:58:10.976Z,3.10
